createdAt,value
2022-09-06T00:02:23.492Z,4.20
2022-09-06T00:07:25.144Z,3.88
2022-09-06T00:12:26.560Z,4.20
2022-09-06T00:17:27.977Z,4.43
2022-09-06T00:22:29.406Z,4.90
2022-09-06T00:27:30.965Z,4.30
2022-09-06T00:32:32.485Z,4.32
2022-09-06T00:37:33.923Z,5.03
2022-09-06T00:42:35.356Z,4.38
2022-09-06T00:47:36.876Z,4.30
2022-09-06T00:52:38.292Z,4.13
2022-09-06T00:57:39.722Z,4.15
2022-09-06T01:02:41.439Z,4.10
2022-09-06T01:08:06.121Z,4.50
2022-09-06T01:13:31.452Z,3.93
2022-09-06T01:23:59.013Z,4.07
2022-09-06T01:29:00.441Z,4.18
2022-09-06T01:34:07.960Z,4.15
2022-09-06T01:39:14.351Z,4.30
2022-09-06T01:44:15.785Z,4.07
2022-09-06T01:49:29.188Z,4.20
2022-09-06T01:54:50.500Z,3.78
2022-09-06T02:00:11.054Z,3.63
2022-09-06T02:05:39.972Z,3.88
2022-09-06T02:10:45.288Z,4.00
2022-09-06T02:15:50.793Z,4.05
2022-09-06T02:20:54.028Z,4.18
2022-09-06T02:26:05.484Z,3.67
2022-09-06T02:31:37.843Z,3.88
2022-09-06T02:36:39.337Z,3.30
2022-09-06T02:41:41.225Z,4.07
2022-09-06T02:46:42.775Z,4.28
2022-09-06T02:51:44.177Z,3.60
2022-09-06T02:56:48.000Z,3.72
2022-09-06T03:01:53.101Z,3.47
2022-09-06T03:06:54.856Z,3.67
2022-09-06T03:11:56.284Z,3.95
2022-09-06T03:16:57.832Z,3.60
2022-09-06T03:21:59.304Z,3.72
2022-09-06T03:27:00.757Z,3.42
2022-09-06T03:32:02.446Z,3.30
2022-09-06T03:37:03.929Z,3.40
2022-09-06T03:42:05.425Z,3.20
2022-09-06T03:47:06.988Z,3.28
2022-09-06T03:52:08.412Z,3.30
2022-09-06T03:57:09.889Z,3.50
2022-09-06T04:02:11.460Z,3.03
2022-09-06T04:07:13.053Z,3.53
2022-09-06T04:12:14.494Z,3.50
2022-09-06T04:17:16.002Z,3.17
2022-09-06T04:22:17.438Z,3.33
2022-09-06T04:27:19.004Z,3.10
2022-09-06T04:32:20.404Z,3.30
2022-09-06T04:37:21.839Z,3.42
2022-09-06T04:42:23.397Z,3.60
2022-09-06T04:47:24.793Z,3.40
2022-09-06T04:52:30.106Z,3.70
2022-09-06T05:02:33.187Z,3.05
2022-09-06T05:07:34.761Z,3.65
2022-09-06T05:12:38.809Z,2.83
2022-09-06T05:17:42.332Z,3.25
2022-09-06T05:22:43.821Z,2.97
2022-09-06T05:27:45.244Z,3.10
2022-09-06T05:32:46.664Z,3.83
2022-09-06T05:37:48.173Z,3.15
2022-09-06T05:42:49.653Z,3.55
2022-09-06T05:47:51.081Z,3.45
2022-09-06T05:52:53.712Z,3.60
2022-09-06T05:57:55.149Z,2.90
2022-09-06T06:02:56.601Z,3.70
2022-09-06T06:07:59.464Z,3.33
2022-09-06T06:13:00.905Z,3.17
2022-09-06T06:18:02.309Z,3.17
2022-09-06T06:23:03.712Z,3.28
2022-09-06T06:28:05.192Z,3.00
2022-09-06T06:33:06.621Z,3.45
2022-09-06T06:38:08.084Z,3.20
2022-09-06T06:43:11.349Z,3.17
2022-09-06T06:48:12.769Z,3.58
2022-09-06T06:53:14.209Z,3.28
2022-09-06T06:58:16.732Z,3.50
2022-09-06T07:03:18.324Z,3.05
2022-09-06T07:08:19.780Z,3.20
2022-09-06T07:13:21.380Z,3.35
2022-09-06T07:18:22.868Z,3.20
2022-09-06T07:28:46.853Z,3.20
2022-09-06T07:33:50.561Z,3.05
2022-09-06T07:43:55.800Z,3.22
2022-09-06T07:48:57.256Z,3.47
2022-09-06T07:54:19.302Z,3.20
2022-09-06T07:59:20.196Z,3.50
2022-09-06T08:04:21.685Z,3.47
2022-09-06T08:09:23.104Z,3.20
2022-09-06T08:14:24.553Z,3.40
2022-09-06T08:19:25.977Z,3.40
2022-09-06T08:24:27.454Z,3.10
2022-09-06T08:29:28.977Z,2.83
2022-09-06T08:34:30.428Z,3.25
2022-09-06T08:39:31.981Z,3.78
2022-09-06T08:44:57.554Z,3.20
2022-09-06T08:50:08.777Z,3.30
2022-09-06T08:55:28.426Z,3.00
2022-09-06T09:00:29.869Z,3.67
2022-09-06T09:05:33.200Z,3.28
2022-09-06T09:10:42.272Z,3.05
2022-09-06T09:15:43.712Z,3.38
2022-09-06T09:20:45.193Z,3.50
2022-09-06T09:25:46.663Z,3.58
2022-09-06T09:30:52.940Z,3.08
2022-09-06T09:35:55.389Z,2.97
2022-09-06T09:41:06.552Z,3.50
2022-09-06T09:46:15.574Z,3.10
2022-09-06T09:51:26.254Z,3.47
2022-09-06T09:56:29.884Z,3.22
2022-09-06T10:01:31.736Z,3.28
2022-09-06T10:11:56.592Z,3.20
2022-09-06T10:16:58.684Z,3.25
2022-09-06T10:22:03.849Z,3.00
2022-09-06T10:27:06.720Z,3.03
2022-09-06T10:32:39.141Z,3.10
2022-09-06T10:37:42.577Z,2.80
2022-09-06T10:42:52.596Z,3.35
2022-09-06T10:48:35.485Z,3.10
2022-09-06T10:53:52.009Z,3.08
2022-09-06T11:10:15.269Z,3.50
2022-09-06T11:15:16.983Z,3.40
2022-09-06T11:20:31.820Z,2.92
2022-09-06T11:25:46.404Z,3.63
2022-09-06T11:30:48.264Z,3.33
2022-09-06T11:35:49.814Z,2.85
2022-09-06T11:41:01.236Z,2.60
2022-09-06T11:46:02.698Z,2.92
2022-09-06T11:51:10.614Z,3.08
2022-09-06T11:56:17.423Z,2.95
2022-09-06T12:01:20.606Z,3.60
2022-09-06T12:06:26.943Z,3.25
2022-09-06T12:11:42.340Z,3.60
2022-09-06T12:21:57.509Z,2.92
2022-09-06T12:27:18.773Z,2.97
2022-09-06T12:32:22.433Z,3.22
2022-09-06T12:37:37.216Z,3.38
2022-09-06T12:42:38.701Z,3.53
2022-09-06T12:47:40.216Z,3.63
2022-09-06T12:52:52.420Z,3.30
2022-09-06T12:57:55.605Z,3.35
2022-09-06T13:03:00.010Z,3.10
2022-09-06T13:08:02.407Z,3.25
2022-09-06T13:13:05.024Z,3.55
2022-09-06T13:18:35.428Z,2.55
2022-09-06T13:23:44.586Z,3.03
2022-09-06T13:28:46.133Z,3.05
2022-09-06T13:33:57.290Z,2.97
2022-09-06T13:38:59.973Z,2.88
2022-09-06T13:44:07.702Z,2.80
2022-09-06T13:49:09.138Z,3.03
2022-09-06T13:54:12.145Z,2.92
2022-09-06T13:59:13.588Z,2.75
2022-09-06T14:04:16.161Z,2.78
2022-09-06T14:09:17.640Z,2.67
2022-09-06T14:14:19.364Z,2.88
2022-09-06T14:19:20.820Z,2.65
2022-09-06T14:24:22.320Z,2.80
2022-09-06T14:29:23.773Z,2.25
2022-09-06T14:34:25.676Z,2.58
2022-09-06T14:39:27.508Z,3.05
2022-09-06T14:44:29.004Z,2.80
2022-09-06T14:49:30.417Z,2.75
2022-09-06T14:54:31.896Z,2.95
2022-09-06T14:59:33.332Z,2.83
2022-09-06T15:04:34.805Z,3.13
2022-09-06T15:09:36.902Z,3.30
2022-09-06T15:14:38.388Z,2.58
2022-09-06T15:19:39.800Z,3.10
2022-09-06T15:24:41.201Z,3.28
2022-09-06T15:29:42.606Z,3.20
2022-09-06T15:34:44.015Z,3.10
2022-09-06T15:39:45.457Z,2.85
2022-09-06T15:44:46.881Z,2.90
2022-09-06T15:49:48.287Z,2.92
2022-09-06T15:55:08.300Z,3.00
2022-09-06T16:00:11.617Z,2.97
2022-09-06T16:05:13.026Z,3.30
2022-09-06T16:10:15.213Z,2.95
2022-09-06T16:15:16.640Z,3.35
2022-09-06T16:20:18.040Z,3.10
2022-09-06T16:25:19.446Z,3.35
2022-09-06T16:30:20.896Z,3.30
2022-09-06T16:35:22.298Z,3.50
2022-09-06T16:40:23.697Z,3.42
2022-09-06T16:45:25.100Z,3.30
2022-09-06T16:50:26.605Z,3.78
2022-09-06T16:55:28.020Z,3.63
2022-09-06T17:00:29.572Z,3.53
2022-09-06T17:05:34.357Z,3.75
2022-09-06T17:10:38.442Z,4.07
2022-09-06T17:15:58.177Z,3.90
2022-09-06T17:21:04.979Z,3.67
2022-09-06T17:26:06.524Z,3.80
2022-09-06T17:31:09.008Z,4.10
2022-09-06T17:36:21.957Z,3.75
2022-09-06T17:41:24.690Z,3.88
2022-09-06T17:46:28.904Z,4.03
2022-09-06T17:51:30.949Z,3.92
2022-09-06T17:56:32.777Z,4.20
2022-09-06T18:01:36.272Z,4.47
2022-09-06T18:06:40.129Z,3.80
2022-09-06T18:11:41.534Z,4.22
2022-09-06T18:16:45.085Z,4.60
2022-09-06T18:21:46.670Z,4.32
2022-09-06T18:26:48.992Z,4.85
2022-09-06T18:31:53.342Z,4.30
2022-09-06T18:36:55.012Z,4.47
2022-09-06T18:42:03.784Z,4.32
2022-09-06T18:47:06.604Z,5.10
2022-09-06T18:52:08.038Z,4.50
2022-09-06T18:57:09.472Z,4.40
2022-09-06T19:02:11.115Z,4.03
2022-09-06T19:07:12.580Z,4.07
2022-09-06T19:12:14.453Z,4.63
2022-09-06T19:17:15.852Z,4.13
2022-09-06T19:22:17.505Z,4.18
2022-09-06T19:27:18.905Z,4.55
2022-09-06T19:32:22.145Z,5.25
2022-09-06T19:37:24.458Z,4.50
2022-09-06T19:42:25.896Z,4.63
2022-09-06T19:47:27.301Z,4.63
2022-09-06T19:52:28.774Z,5.00
2022-09-06T19:57:30.802Z,4.78
2022-09-06T20:02:32.223Z,4.75
2022-09-06T20:07:33.673Z,4.25
2022-09-06T20:12:35.927Z,4.18
2022-09-06T20:17:38.044Z,4.28
2022-09-06T20:22:39.489Z,4.65
2022-09-06T20:27:44.367Z,4.55
2022-09-06T20:32:46.098Z,4.30
2022-09-06T20:37:47.581Z,4.05
2022-09-06T20:42:48.988Z,4.30
2022-09-06T20:47:50.505Z,4.30
2022-09-06T20:52:53.001Z,4.10
2022-09-06T20:57:55.025Z,3.92
2022-09-06T21:02:57.069Z,4.45
2022-09-06T21:07:58.497Z,4.20
2022-09-06T21:13:00.272Z,4.90
2022-09-06T21:18:02.189Z,4.95
2022-09-06T21:23:03.653Z,4.43
2022-09-06T21:28:05.061Z,4.72
2022-09-06T21:33:06.469Z,4.22
2022-09-06T21:38:08.420Z,4.50
2022-09-06T21:43:09.821Z,4.85
2022-09-06T21:48:12.325Z,3.97
2022-09-06T21:53:13.973Z,4.07
2022-09-06T21:58:16.253Z,3.88
2022-09-06T22:03:17.809Z,4.75
2022-09-06T22:08:19.412Z,4.80
2022-09-06T22:13:20.819Z,4.43
2022-09-06T22:18:22.220Z,4.55
2022-09-06T22:23:23.632Z,4.50
2022-09-06T22:28:25.035Z,4.10
2022-09-06T22:33:26.469Z,4.18
2022-09-06T22:38:28.427Z,3.80
2022-09-06T22:43:29.840Z,4.38
2022-09-06T22:48:32.289Z,3.85
2022-09-06T22:53:33.781Z,4.18
2022-09-06T22:58:35.431Z,4.18
2022-09-06T23:03:37.027Z,4.15
2022-09-06T23:08:39.257Z,3.85
2022-09-06T23:13:43.671Z,3.90
2022-09-06T23:18:45.869Z,3.90
2022-09-06T23:23:47.896Z,4.03
2022-09-06T23:28:51.543Z,3.40
2022-09-06T23:33:53.740Z,3.70
2022-09-06T23:38:55.874Z,3.92
2022-09-06T23:43:57.347Z,3.72
2022-09-06T23:48:58.751Z,3.58
2022-09-06T23:54:00.713Z,3.90
2022-09-06T23:59:02.116Z,3.30
